Time;durP1;ratioP1;P1;durP2;ratioP2;P2;SDS_P1;SDS_P2;PMS_P1;PMS_P2;Temp;Humidity;BMP_temperature;BMP_pressure;BME280_temperature;BME280_humidity;BME280_pressure;Samples;Min_cycle;Max_cycle;Signal;HPM_P1;HPM_P2
2021/07/28 04:15:14;;;;;;;14.40;10.90;;;;;;;17.87;97.10;98548.84;6073544;23;21176;-69
2021/07/28 04:17:39;;;;;;;19.45;11.77;;;;;;;17.94;97.17;98541.53;4975166;28;20043;-70
2021/07/28 04:20:05;;;;;;;16.52;11.20;;;;;;;17.94;96.71;98531.88;4976055;28;20061;-71
2021/07/28 04:22:30;;;;;;;15.27;11.98;;;;;;;17.88;97.49;98534.81;4975679;28;20054;-71
2021/07/28 04:24:56;;;;;;;12.27;10.80;;;;;;;17.75;97.54;98540.78;4976123;28;20475;-71
2021/07/28 04:27:21;;;;;;;13.43;11.75;;;;;;;17.69;98.03;98529.63;4974488;28;20023;-71
2021/07/28 04:29:46;;;;;;;14.55;10.82;;;;;;;17.71;97.94;98533.03;4976132;28;20031;-71
2021/07/28 04:32:12;;;;;;;16.08;11.50;;;;;;;17.70;98.19;98533.97;4971678;28;20451;-72
2021/07/28 04:34:37;;;;;;;17.02;10.95;;;;;;;17.83;97.70;98526.31;4975650;28;20049;-72
2021/07/28 04:37:03;;;;;;;13.10;11.00;;;;;;;17.84;97.23;98537.66;4975696;28;20384;-72
2021/07/28 04:39:31;;;;;;;13.75;11.60;;;;;;;18.01;95.82;98536.81;4958342;28;20042;-71
2021/07/28 04:41:57;;;;;;;12.85;10.45;;;;;;;18.31;94.71;98536.97;4975578;28;20495;-71
2021/07/28 04:44:22;;;;;;;15.07;11.05;;;;;;;18.32;94.40;98543.88;4975261;28;20073;-72
2021/07/28 04:46:47;;;;;;;13.43;10.48;;;;;;;18.21;94.95;98540.06;4975412;28;20077;-71
2021/07/28 04:49:13;;;;;;;11.98;10.45;;;;;;;18.03;96.28;98522.66;4975449;28;20384;-72
2021/07/28 04:51:38;;;;;;;17.08;10.95;;;;;;;18.04;96.26;98534.88;4975264;28;20027;-70
2021/07/28 04:54:03;;;;;;;16.08;10.57;;;;;;;18.31;95.83;98542.19;4975343;28;20085;-70
2021/07/28 04:56:28;;;;;;;14.07;10.65;;;;;;;18.26;94.95;98545.06;4975273;28;20089;-70
2021/07/28 04:58:54;;;;;;;15.45;11.40;;;;;;;18.47;93.90;98537.84;4975223;28;20026;-72
2021/07/28 05:01:19;;;;;;;13.18;10.93;;;;;;;18.53;93.58;98532.25;4975086;28;20026;-71
2021/07/28 05:03:44;;;;;;;18.08;11.20;;;;;;;18.34;93.55;98527.16;4964370;28;20377;-71
2021/07/28 05:06:10;;;;;;;10.68;9.18;;;;;;;18.67;92.72;98529.72;4967980;28;20547;-69
2021/07/28 05:08:35;;;;;;;12.18;10.40;;;;;;;18.86;91.48;98534.84;4974856;28;20495;-70
2021/07/28 05:11:00;;;;;;;13.35;10.10;;;;;;;18.97;90.64;98531.63;4967206;28;20365;-71
2021/07/28 05:13:26;;;;;;;14.75;10.25;;;;;;;19.16;89.52;98532.28;4964692;28;20030;-71
2021/07/28 05:15:54;;;;;;;15.65;9.80;;;;;;;18.94;90.14;98544.91;4974534;28;20036;-70
2021/07/28 05:18:21;;;;;;;20.95;11.27;;;;;;;18.84;91.13;98546.34;4973882;28;20392;-70
2021/07/28 05:20:47;;;;;;;15.60;10.43;;;;;;;18.74;91.78;98546.84;4974571;28;20033;-70
2021/07/28 05:23:12;;;;;;;20.52;11.07;;;;;;;18.67;91.89;98552.50;4974372;28;20034;-70
2021/07/28 05:25:37;;;;;;;12.45;10.63;;;;;;;18.70;92.59;98550.56;4974672;28;20435;-70
2021/07/28 05:28:05;;;;;;;15.70;10.05;;;;;;;18.83;91.77;98549.91;4956675;28;20019;-71
2021/07/28 05:30:30;;;;;;;14.98;10.23;;;;;;;18.91;91.35;98542.47;4974047;28;20111;-71
2021/07/28 05:32:56;;;;;;;15.43;11.13;;;;;;;18.88;91.68;98550.50;4974225;28;20031;-70
2021/07/28 05:35:21;;;;;;;19.98;12.02;;;;;;;19.11;89.43;98534.31;4974292;28;20107;-70
2021/07/28 05:37:47;;;;;;;15.82;11.00;;;;;;;19.08;90.48;98542.34;4974454;28;20019;-70
2021/07/28 05:40:13;;;;;;;14.63;11.88;;;;;;;18.93;91.08;98551.09;4971480;28;20165;-71
2021/07/28 05:42:39;;;;;;;16.73;11.57;;;;;;;18.99;91.03;98561.25;4973995;28;20146;-70
2021/07/28 05:45:05;;;;;;;16.50;12.18;;;;;;;18.87;91.60;98552.28;4974307;28;20067;-70
2021/07/28 05:47:30;;;;;;;18.23;12.90;;;;;;;19.12;91.69;98543.88;4974082;28;20490;-70
2021/07/28 05:49:58;;;;;;;16.88;11.82;;;;;;;19.18;90.55;98543.53;4974175;28;20027;-70
2021/07/28 05:52:23;;;;;;;15.25;11.80;;;;;;;19.46;89.07;98557.72;4972964;28;20379;-70
2021/07/28 05:54:49;;;;;;;16.02;11.35;;;;;;;19.51;87.84;98563.56;4969861;28;20023;-70
2021/07/28 05:57:14;;;;;;;15.27;11.10;;;;;;;19.66;86.54;98557.44;4973742;28;20019;-70
2021/07/28 05:59:39;;;;;;;14.38;10.52;;;;;;;19.65;86.54;98555.75;4972874;28;20019;-70
2021/07/28 06:02:05;;;;;;;16.63;11.73;;;;;;;19.61;87.14;98570.00;4900965;28;20059;-69
2021/07/28 06:04:30;;;;;;;14.13;11.00;;;;;;;19.50;87.03;98577.63;4871861;29;20115;-70
2021/07/28 06:06:55;;;;;;;16.55;10.70;;;;;;;19.66;87.29;98586.34;4935116;29;20027;-70
2021/07/28 06:09:20;;;;;;;18.10;11.50;;;;;;;19.60;86.77;98557.81;4935305;29;20035;-70
2021/07/28 06:11:46;;;;;;;17.63;12.88;;;;;;;19.31;87.89;98555.97;4935224;29;20495;-70
2021/07/28 06:14:11;;;;;;;19.10;11.02;;;;;;;19.20;88.43;98554.81;4934960;29;20717;-70
2021/07/28 06:16:37;;;;;;;12.05;9.13;;;;;;;19.10;86.99;98558.88;4934622;29;20118;-70
2021/07/28 06:19:02;;;;;;;9.38;7.57;;;;;;;19.23;84.83;98559.88;4935149;29;20110;-70
2021/07/28 06:21:28;;;;;;;10.95;8.23;;;;;;;18.95;86.35;98559.72;4934901;29;20472;-70
2021/07/28 06:23:53;;;;;;;8.45;7.35;;;;;;;19.12;85.86;98551.75;4935226;29;20371;-70
2021/07/28 06:26:18;;;;;;;8.25;7.05;;;;;;;19.22;84.62;98549.47;4934118;29;20058;-70
2021/07/28 06:28:43;;;;;;;9.80;7.45;;;;;;;19.38;84.71;98552.88;4910891;29;21010;-71
2021/07/28 06:31:09;;;;;;;14.30;7.43;;;;;;;19.70;83.88;98560.75;4934040;29;20481;-70
2021/07/28 06:33:34;;;;;;;7.57;6.65;;;;;;;19.96;82.39;98559.19;4931049;29;20024;-71
2021/07/28 06:36:00;;;;;;;6.55;5.95;;;;;;;20.08;79.77;98562.88;4934839;29;20028;-70
2021/07/28 06:38:25;;;;;;;6.88;6.18;;;;;;;19.66;81.39;98567.94;4934149;29;20172;-70
2021/07/28 06:40:51;;;;;;;7.90;5.90;;;;;;;19.96;79.17;98565.28;4934873;29;20110;-72
2021/07/28 06:43:16;;;;;;;8.00;6.88;;;;;;;20.23;79.21;98573.31;4934644;29;20071;-70
2021/07/28 06:45:42;;;;;;;9.90;8.30;;;;;;;20.14;80.31;98573.88;4934778;29;20043;-71
2021/07/28 06:48:08;;;;;;;11.93;9.63;;;;;;;20.24;78.74;98568.91;4934571;29;20024;-71
2021/07/28 06:50:33;;;;;;;10.82;8.98;;;;;;;20.17;80.56;98572.84;4933171;29;20035;-70
2021/07/28 06:52:59;;;;;;;18.88;13.82;;;;;;;20.26;80.60;98575.78;4934576;29;20031;-70
2021/07/28 06:55:24;;;;;;;13.98;8.65;;;;;;;20.32;81.25;98571.06;4934603;29;20024;-70
2021/07/28 06:57:50;;;;;;;8.63;7.82;;;;;;;20.45;79.99;98562.34;4934802;29;20106;-70
2021/07/28 07:00:15;;;;;;;12.75;10.70;;;;;;;20.10;80.71;98561.00;4934216;29;20028;-71
2021/07/28 07:02:41;;;;;;;16.52;9.15;;;;;;;20.05;81.64;98548.13;4933833;29;20421;-71
2021/07/28 07:05:08;;;;;;;15.32;10.82;;;;;;;20.75;80.50;98548.22;4934404;29;20028;-69
2021/07/28 07:07:34;;;;;;;10.95;9.85;;;;;;;20.79;80.78;98545.31;4934486;29;20016;-70
2021/07/28 07:09:59;;;;;;;11.85;8.43;;;;;;;20.50;78.17;98562.06;4934607;29;20482;-70
2021/07/28 07:12:24;;;;;;;15.18;10.30;;;;;;;20.38;80.30;98575.94;4926814;29;20693;-70
2021/07/28 07:14:50;;;;;;;12.60;10.27;;;;;;;20.18;81.31;98585.06;4934395;29;20035;-70
2021/07/28 07:17:15;;;;;;;13.25;11.07;;;;;;;19.99;82.70;98599.31;4934311;29;20044;-70
2021/07/28 07:19:41;;;;;;;9.55;7.40;;;;;;;19.83;83.25;98597.69;4917256;29;20027;-70
2021/07/28 07:22:07;;;;;;;10.73;7.88;;;;;;;19.82;85.08;98595.97;4934340;29;20039;-70
2021/07/28 07:24:33;;;;;;;10.90;7.70;;;;;;;19.91;84.37;98595.44;4933486;29;20103;-70
2021/07/28 07:26:58;;;;;;;10.45;7.95;;;;;;;19.96;84.92;98596.00;4934243;29;20039;-70
2021/07/28 07:29:24;;;;;;;9.23;6.65;;;;;;;20.28;81.78;98600.19;4934407;29;20028;-70
2021/07/28 07:31:49;;;;;;;13.13;7.25;;;;;;;20.29;82.00;98601.88;4931493;29;20028;-70
2021/07/28 07:34:15;;;;;;;11.77;7.45;;;;;;;20.21;81.93;98617.31;4932946;29;20028;-70
2021/07/28 07:36:40;;;;;;;8.43;6.72;;;;;;;20.09;81.28;98610.13;4933529;29;20054;-70
2021/07/28 07:39:07;;;;;;;8.32;6.05;;;;;;;20.00;82.42;98608.03;4934214;29;20028;-70
2021/07/28 07:41:33;;;;;;;6.55;5.68;;;;;;;20.12;80.33;98609.13;4934196;29;20115;-70
2021/07/28 07:43:59;;;;;;;8.50;5.78;;;;;;;19.98;80.78;98609.94;4931712;29;20122;-70
2021/07/28 07:46:25;;;;;;;9.60;5.43;;;;;;;20.02;81.05;98619.34;4925101;29;20037;-70
2021/07/28 07:48:51;;;;;;;7.13;5.10;;;;;;;20.05;79.75;98616.50;4933723;29;20019;-70
2021/07/28 07:51:17;;;;;;;6.07;5.47;;;;;;;20.19;79.85;98624.41;4898001;29;20482;-70
2021/07/28 07:53:42;;;;;;;7.00;5.20;;;;;;;20.13;78.80;98634.47;4921755;29;20027;-70
2021/07/28 07:56:07;;;;;;;8.05;5.53;;;;;;;20.18;79.12;98630.63;4931810;29;20035;-70
2021/07/28 07:58:34;;;;;;;7.70;5.53;;;;;;;20.06;77.67;98628.72;4931051;29;20024;-70
2021/07/28 08:01:07;;;;;;;8.48;5.10;;;;;;;20.31;79.56;98633.38;4933982;29;20035;-70
2021/07/28 08:03:32;;;;;;;4.82;4.38;;;;;;;20.10;75.63;98630.22;4933443;29;20031;-70
2021/07/28 08:05:58;;;;;;;9.13;5.45;;;;;;;20.05;77.81;98632.28;4937519;29;20109;-70
2021/07/28 08:08:23;;;;;;;6.65;4.88;;;;;;;20.06;77.30;98623.44;4937524;29;20106;-70
2021/07/28 08:10:48;;;;;;;8.32;4.53;;;;;;;20.15;73.81;98630.81;4936599;29;20034;-70
2021/07/28 08:13:13;;;;;;;8.68;4.75;;;;;;;20.23;74.55;98636.47;4937319;29;20023;-70
2021/07/28 08:15:39;;;;;;;7.32;4.88;;;;;;;19.94;75.65;98629.44;4937367;29;20080;-70
2021/07/28 08:18:05;;;;;;;8.60;4.70;;;;;;;19.83;76.86;98637.13;4931545;29;20025;-70
2021/07/28 08:20:30;;;;;;;9.30;5.03;;;;;;;19.72;76.43;98635.09;4937175;29;20024;-70
2021/07/28 08:22:55;;;;;;;7.20;5.57;;;;;;;19.50;75.57;98635.47;4936463;29;20030;-70
2021/07/28 08:25:21;;;;;;;5.10;4.55;;;;;;;19.37;75.87;98637.06;4937203;29;20107;-69
2021/07/28 08:27:46;;;;;;;7.63;4.80;;;;;;;19.27;76.62;98644.63;4937278;29;20465;-70
2021/07/28 08:30:13;;;;;;;7.38;5.60;;;;;;;19.24;76.25;98645.66;4937216;29;20072;-70
2021/07/28 08:32:38;;;;;;;12.63;5.45;;;;;;;19.14;75.62;98638.34;4936197;29;20023;-70
2021/07/28 08:35:04;;;;;;;4.80;4.30;;;;;;;19.21;76.87;98637.94;4934863;29;20099;-70
2021/07/28 08:37:29;;;;;;;12.65;4.68;;;;;;;19.01;77.63;98638.19;4937052;29;20408;-69
2021/07/28 08:39:55;;;;;;;5.72;4.93;;;;;;;19.06;76.34;98641.41;4936923;29;20036;-70
2021/07/28 08:42:22;;;;;;;7.10;4.57;;;;;;;19.01;75.10;98638.19;4936825;29;20027;-69
2021/07/28 08:44:47;;;;;;;6.07;4.53;;;;;;;18.83;75.49;98633.94;4936191;29;20034;-69
2021/07/28 08:47:13;;;;;;;6.55;4.57;;;;;;;18.83;76.65;98629.53;4936571;29;20023;-70
2021/07/28 08:49:38;;;;;;;6.38;5.30;;;;;;;18.63;79.92;98625.31;4936844;29;20032;-70
2021/07/28 08:52:04;;;;;;;4.88;4.20;;;;;;;18.69;76.66;98624.16;4936677;29;20458;-70
2021/07/28 08:54:29;;;;;;;4.78;4.32;;;;;;;18.96;75.92;98632.34;4936834;29;20020;-70
2021/07/28 08:56:55;;;;;;;4.30;3.90;;;;;;;18.83;74.46;98621.63;4935700;29;20028;-70
2021/07/28 08:59:28;;;;;;;5.22;4.40;;;;;;;19.00;73.26;98631.22;4936592;29;20058;-70
2021/07/28 09:01:58;;;;;;;8.45;4.28;;;;;;;19.27;75.57;98639.38;4936483;29;20819;-70
2021/07/28 09:04:24;;;;;;;7.47;3.80;;;;;;;19.35;71.57;98641.56;4929528;29;20027;-70
2021/07/28 09:06:50;;;;;;;5.30;4.30;;;;;;;19.63;70.79;98640.88;4931602;29;20468;-70
2021/07/28 09:09:15;;;;;;;8.38;3.90;;;;;;;20.29;69.76;98637.88;4935658;29;20135;-70
2021/07/28 09:11:58;;;;;;;5.15;3.97;;;;;;;20.74;68.57;98636.91;4936289;29;20028;-69
2021/07/28 09:14:28;;;;;;;4.90;3.25;;;;;;;20.95;64.29;98633.88;4935671;29;20106;-70
2021/07/28 09:17:11;;;;;;;4.55;3.63;;;;;;;20.66;64.83;98625.16;4936091;29;20054;-70
2021/07/28 09:19:46;;;;;;;6.10;3.53;;;;;;;20.27;66.32;98623.97;4935566;29;20024;-71
2021/07/28 09:22:13;;;;;;;3.60;3.00;;;;;;;20.46;67.18;98621.09;4934982;29;20028;-70
2021/07/28 09:24:41;;;;;;;4.68;3.47;;;;;;;20.89;64.49;98623.75;4933874;29;20043;-70
2021/07/28 09:27:07;;;;;;;5.82;5.22;;;;;;;21.10;63.25;98622.38;4917792;29;20386;-70
2021/07/28 09:29:33;;;;;;;9.18;4.00;;;;;;;21.09;63.89;98631.22;4929036;29;20043;-70
2021/07/28 09:32:04;;;;;;;7.45;3.05;;;;;;;20.78;62.92;98633.13;4931433;29;20107;-70
2021/07/28 09:34:32;;;;;;;3.83;3.13;;;;;;;20.84;64.58;98631.06;4935773;29;20019;-70
2021/07/28 09:36:59;;;;;;;3.88;3.35;;;;;;;21.08;63.89;98634.81;4935733;29;20050;-70
2021/07/28 09:39:37;;;;;;;4.00;3.35;;;;;;;20.59;66.92;98637.84;4935443;29;20031;-70
2021/07/28 09:42:11;;;;;;;6.22;4.57;;;;;;;20.75;66.52;98643.88;4934842;29;20474;-70
2021/07/28 09:44:39;;;;;;;6.88;3.95;;;;;;;20.63;67.32;98641.97;4935811;29;20024;-70
2021/07/28 09:47:07;;;;;;;4.05;3.60;;;;;;;20.26;68.58;98643.34;4928557;29;20032;-70
2021/07/28 09:49:33;;;;;;;7.63;4.22;;;;;;;20.38;68.76;98644.38;4935184;29;20042;-70
2021/07/28 09:51:59;;;;;;;5.68;4.28;;;;;;;21.26;65.84;98644.16;4927721;29;20051;-69
2021/07/28 09:54:31;;;;;;;7.97;4.10;;;;;;;21.23;65.21;98647.00;4934001;29;20087;-70
2021/07/28 09:57:00;;;;;;;5.45;3.67;;;;;;;20.74;66.63;98652.72;4935519;29;20032;-69
2021/07/28 09:59:26;;;;;;;;;;;;;;;20.51;67.06;98653.28;4936083;29;20027;-70
2021/07/28 10:01:52;;;;;;;5.07;4.20;;;;;;;20.94;67.48;98648.84;4932447;29;19958;-70
2021/07/28 10:04:19;;;;;;;6.22;3.92;;;;;;;20.72;67.09;98638.78;4934153;29;20048;-70
2021/07/28 10:06:52;;;;;;;9.88;4.80;;;;;;;21.06;65.13;98636.69;4935039;29;20035;-72
2021/07/28 10:09:21;;;;;;;4.63;4.05;;;;;;;20.86;66.07;98639.72;4935382;29;20063;-70
2021/07/28 10:11:49;;;;;;;5.85;4.10;;;;;;;21.85;64.48;98635.13;4935317;29;20035;-71
2021/07/28 10:14:19;;;;;;;8.00;4.15;;;;;;;21.87;62.90;98633.25;4935378;29;20030;-71
2021/07/28 10:16:45;;;;;;;5.13;3.42;;;;;;;22.20;61.24;98631.03;4934182;29;20039;-71
2021/07/28 10:19:11;;;;;;;9.40;3.78;;;;;;;22.78;59.50;98624.34;4935232;29;20030;-71
2021/07/28 10:21:37;;;;;;;4.28;3.42;;;;;;;22.94;58.03;98632.06;4932417;29;20106;-71
2021/07/28 10:24:03;;;;;;;4.65;3.25;;;;;;;23.25;55.98;98630.69;4932461;29;20042;-71
2021/07/28 10:26:33;;;;;;;5.95;3.58;;;;;;;23.52;56.80;98634.94;4918035;29;20038;-71
2021/07/28 10:28:59;;;;;;;4.22;3.28;;;;;;;24.58;53.64;98620.75;4934289;29;20036;-71
2021/07/28 10:31:25;;;;;;;6.13;3.00;;;;;;;24.10;55.24;98630.63;4918406;29;20040;-71
2021/07/28 10:33:55;;;;;;;3.63;2.92;;;;;;;23.82;55.42;98631.88;4934950;29;20169;-71
2021/07/28 10:36:23;;;;;;;3.83;2.88;;;;;;;24.02;55.16;98628.56;4934894;29;20547;-71
2021/07/28 10:38:53;;;;;;;4.20;3.22;;;;;;;24.66;52.08;98622.81;4934409;29;20027;-71
2021/07/28 10:41:43;;;;;;;4.32;3.38;;;;;;;24.28;53.36;98616.00;4934730;29;20030;-71
2021/07/28 10:44:11;;;;;;;3.42;3.00;;;;;;;24.84;51.84;98616.03;4934901;29;20031;-71
2021/07/28 10:46:52;;;;;;;5.37;3.60;;;;;;;24.41;51.73;98626.50;4934886;29;20054;-71
2021/07/28 10:49:38;;;;;;;4.00;3.22;;;;;;;23.84;54.32;98622.03;4934766;29;20481;-71
2021/07/28 10:52:05;;;;;;;9.85;3.40;;;;;;;23.98;53.28;98629.78;4916536;29;20048;-71
2021/07/28 10:54:52;;;;;;;4.40;3.42;;;;;;;23.29;56.35;98640.09;4924825;29;20383;-72
2021/07/28 10:57:33;;;;;;;5.10;3.20;;;;;;;23.50;55.02;98636.88;4904196;29;20027;-71
2021/07/28 11:00:03;;;;;;;6.03;3.30;;;;;;;23.59;54.51;98641.47;4922652;29;20032;-72
2021/07/28 11:02:56;;;;;;;5.43;3.10;;;;;;;23.52;55.70;98637.59;4921522;29;20057;-75
2021/07/28 11:05:26;;;;;;;5.70;3.38;;;;;;;22.26;58.45;98641.16;4921822;29;20051;-70
2021/07/28 11:08:06;;;;;;;3.95;2.83;;;;;;;23.09;56.09;98635.41;4925654;29;20034;-71
2021/07/28 11:10:40;;;;;;;7.50;3.58;;;;;;;23.63;55.43;98624.41;4923542;29;20065;-71
2021/07/28 11:13:14;;;;;;;6.80;5.20;;;;;;;23.93;52.82;98625.75;4907576;29;20657;-71
2021/07/28 11:15:41;;;;;;;6.65;4.43;;;;;;;23.71;52.87;98624.72;4922469;29;20504;-71
2021/07/28 11:18:07;;;;;;;4.50;3.70;;;;;;;23.57;54.48;98624.88;4925888;29;20167;-71
2021/07/28 11:20:34;;;;;;;5.10;3.00;;;;;;;23.37;55.00;98628.97;4923263;29;20028;-71
2021/07/28 11:23:21;;;;;;;10.32;6.70;;;;;;;23.29;53.04;98611.00;4907983;29;20062;-70
2021/07/28 11:26:14;;;;;;;5.28;3.28;;;;;;;23.66;53.67;98618.09;4920936;29;20279;-70
2021/07/28 11:28:39;;;;;;;4.15;3.15;;;;;;;24.60;50.35;98620.63;4919747;29;20032;-70
2021/07/28 11:31:05;;;;;;;3.95;3.55;;;;;;;26.04;47.07;98609.84;4912092;29;20028;-70
2021/07/28 11:33:32;;;;;;;4.05;2.83;;;;;;;25.73;47.42;98611.53;4911529;29;20094;-72
2021/07/28 11:35:58;;;;;;;3.40;2.97;;;;;;;25.80;47.70;98606.59;4911791;29;20034;-72
2021/07/28 11:38:26;;;;;;;3.42;3.00;;;;;;;26.14;45.39;98610.75;4912313;29;20028;-71
2021/07/28 11:41:00;;;;;;;6.07;3.22;;;;;;;26.06;46.15;98607.03;4905531;29;20042;-72
2021/07/28 11:43:31;;;;;;;3.53;3.00;;;;;;;26.81;43.75;98608.59;4904868;29;20038;-72
2021/07/28 11:46:02;;;;;;;4.78;2.70;;;;;;;27.08;43.19;98616.00;4898064;29;20051;-71
2021/07/28 11:48:37;;;;;;;6.80;4.32;;;;;;;27.20;42.33;98609.59;4895579;29;20028;-72
2021/07/28 11:51:06;;;;;;;4.03;2.83;;;;;;;28.00;41.55;98599.72;4895876;29;20091;-72
2021/07/28 11:53:32;;;;;;;;;;;;;;;30.75;36.58;98598.50;4895875;29;20404;-71
2021/07/28 11:56:12;;;;;;;5.50;3.10;;;;;;;29.60;38.29;98600.34;4897066;29;19925;-72
2021/07/28 11:58:50;;;;;;;2.67;2.47;;;;;;;28.30;38.78;98615.50;4902008;29;20039;-72
2021/07/28 12:01:24;;;;;;;5.85;2.60;;;;;;;28.31;40.26;98611.84;4910232;29;20055;-72
2021/07/28 12:03:56;;;;;;;3.58;3.00;;;;;;;28.80;39.11;98604.56;4911957;29;20204;-78
2021/07/28 12:06:28;;;;;;;3.90;2.78;;;;;;;28.10;41.46;98597.88;4910155;29;20028;-71
2021/07/28 12:09:07;;;;;;;4.35;3.35;;;;;;;27.52;42.61;98597.88;4913919;29;20665;-71
2021/07/28 12:11:53;;;;;;;;;;;;;;;26.52;44.83;98609.31;4919004;29;20497;-70
2021/07/28 12:14:22;;;;;;;11.95;7.47;;;;;;;25.75;47.24;98604.31;4921528;29;20387;-69
2021/07/28 12:16:47;;;;;;;4.57;3.08;;;;;;;25.52;47.36;98597.38;4924595;29;20036;-69
2021/07/28 12:19:13;;;;;;;3.75;2.70;;;;;;;25.60;47.09;98589.63;4928791;29;20039;-69
2021/07/28 12:21:58;;;;;;;9.80;3.10;;;;;;;25.66;47.97;98583.81;4927757;29;20154;-69
2021/07/28 12:24:40;;;;;;;3.63;2.60;;;;;;;25.23;48.89;98576.72;4927597;29;20126;-69
2021/07/28 12:27:24;;;;;;;8.38;3.70;;;;;;;24.87;48.90;98581.34;4927412;29;20019;-70
2021/07/28 12:30:15;;;;;;;3.70;3.15;;;;;;;25.36;49.04;98580.06;4926987;29;20039;-69
2021/07/28 12:32:43;;;;;;;5.50;3.08;;;;;;;25.17;47.23;98577.22;4927090;29;20158;-69
2021/07/28 12:35:15;;;;;;;7.53;3.20;;;;;;;25.45;47.16;98578.47;4926322;29;20087;-69
2021/07/28 12:37:41;;;;;;;5.15;3.28;;;;;;;25.62;46.79;98577.06;4926773;29;20059;-69
2021/07/28 12:40:07;;;;;;;4.50;2.83;;;;;;;25.87;46.33;98576.75;4928588;29;20027;-70
2021/07/28 12:42:32;;;;;;;4.38;3.17;;;;;;;25.64;46.22;98585.75;4928171;29;20035;-72
2021/07/28 12:44:58;;;;;;;3.75;3.08;;;;;;;25.80;46.34;98580.88;4923350;29;20043;-72
2021/07/28 12:47:24;;;;;;;3.53;3.22;;;;;;;25.98;45.37;98578.50;4927564;29;20030;-72
2021/07/28 12:49:50;;;;;;;3.53;2.80;;;;;;;25.44;46.10;98583.91;4924246;29;20064;-72
2021/07/28 12:52:15;;;;;;;6.55;4.78;;;;;;;26.07;46.62;98576.88;4928170;29;20393;-72
2021/07/28 12:54:41;;;;;;;4.38;3.58;;;;;;;25.58;45.55;98573.00;4925767;29;20024;-72
2021/07/28 12:57:06;;;;;;;4.05;2.80;;;;;;;25.63;45.49;98573.47;4922413;29;20024;-72
2021/07/28 12:59:31;;;;;;;14.57;9.50;;;;;;;25.74;45.81;98576.06;4926669;29;20032;-72
2021/07/28 13:02:00;;;;;;;7.82;3.20;;;;;;;25.31;45.82;98590.22;4923481;29;20082;-70
2021/07/28 13:04:27;;;;;;;4.80;3.20;;;;;;;24.67;46.31;98592.69;4927098;29;20046;-70
2021/07/28 13:06:56;;;;;;;3.63;2.78;;;;;;;25.39;45.86;98586.94;4927211;29;20058;-70
2021/07/28 13:09:22;;;;;;;4.32;2.80;;;;;;;26.22;44.48;98574.72;4921341;29;20110;-70
2021/07/28 13:11:47;;;;;;;5.68;3.38;;;;;;;26.20;47.06;98571.34;4927848;29;20038;-70
2021/07/28 13:14:12;;;;;;;4.40;3.03;;;;;;;25.72;46.44;98566.53;4925362;29;20027;-70
2021/07/28 13:16:38;;;;;;;5.10;3.17;;;;;;;25.62;45.69;98561.13;4925529;29;20040;-70
2021/07/28 13:19:03;;;;;;;3.05;2.75;;;;;;;25.10;44.76;98560.16;4921260;29;20485;-71
2021/07/28 13:21:29;;;;;;;3.65;3.15;;;;;;;25.41;45.44;98562.94;4922105;29;20063;-71
2021/07/28 13:23:54;;;;;;;4.70;3.65;;;;;;;25.41;46.28;98568.25;4922171;29;20031;-74
2021/07/28 13:26:20;;;;;;;9.25;6.60;;;;;;;25.83;46.51;98564.72;4924338;29;20289;-73
2021/07/28 13:28:46;;;;;;;4.32;3.30;;;;;;;25.75;45.42;98561.84;4927578;29;20023;-73
2021/07/28 13:31:11;;;;;;;5.07;3.20;;;;;;;25.43;45.03;98566.28;4924883;29;20039;-73
2021/07/28 13:33:37;;;;;;;6.70;3.28;;;;;;;25.40;45.22;98563.91;4926583;29;20058;-72
2021/07/28 13:36:02;;;;;;;5.07;3.10;;;;;;;25.61;47.05;98564.78;4925465;29;20036;-73
2021/07/28 13:38:30;;;;;;;7.13;3.03;;;;;;;25.34;46.21;98555.50;4927480;29;20035;-73
2021/07/28 13:40:55;;;;;;;4.72;3.03;;;;;;;25.20;47.03;98557.59;4927170;29;20035;-73
2021/07/28 13:43:21;;;;;;;4.18;3.05;;;;;;;25.19;47.33;98550.56;4926677;29;20551;-73
2021/07/28 13:45:46;;;;;;;4.72;3.40;;;;;;;25.25;47.67;98540.31;4923431;29;20036;-73
2021/07/28 13:48:12;;;;;;;5.90;3.22;;;;;;;25.24;46.32;98546.59;4927547;29;20039;-72
2021/07/28 13:50:37;;;;;;;5.55;4.75;;;;;;;25.33;45.62;98534.38;4924531;29;20510;-72
2021/07/28 13:53:03;;;;;;;5.60;3.30;;;;;;;25.88;45.75;98529.81;4905029;29;20125;-72
2021/07/28 13:55:28;;;;;;;5.13;2.95;;;;;;;25.62;45.67;98539.91;4926247;29;20035;-72
2021/07/28 13:57:53;;;;;;;4.32;2.97;;;;;;;25.37;45.13;98531.34;4927053;29;20099;-72
2021/07/28 14:00:19;;;;;;;6.88;4.63;;;;;;;25.59;46.14;98527.75;4904772;29;20028;-72
2021/07/28 14:02:47;;;;;;;3.42;3.15;;;;;;;25.47;45.50;98526.13;4925518;29;20098;-72
2021/07/28 14:05:13;;;;;;;3.33;3.00;;;;;;;25.89;44.82;98524.34;4927207;29;20046;-71
2021/07/28 14:07:38;;;;;;;3.60;3.03;;;;;;;26.19;45.49;98514.72;4921109;29;20031;-71
2021/07/28 14:10:05;;;;;;;6.45;3.40;;;;;;;26.25;44.44;98511.53;4926842;29;20032;-71
2021/07/28 14:12:31;;;;;;;6.88;3.47;;;;;;;26.45;43.66;98511.66;4926786;29;20026;-71
2021/07/28 14:14:58;;;;;;;5.93;2.90;;;;;;;26.40;45.99;98520.84;4922284;29;20032;-71
2021/07/28 14:17:24;;;;;;;6.88;3.55;;;;;;;26.02;43.79;98507.41;4926759;29;20033;-71
2021/07/28 14:19:49;;;;;;;6.35;3.13;;;;;;;25.41;44.87;98504.56;4926254;29;20296;-71
2021/07/28 14:22:14;;;;;;;3.47;3.17;;;;;;;25.74;45.37;98517.66;4922898;29;20038;-71
2021/07/28 14:24:40;;;;;;;4.43;3.70;;;;;;;25.54;44.74;98510.53;4926505;29;20485;-71
2021/07/28 14:27:05;;;;;;;4.63;2.67;;;;;;;25.49;45.04;98512.75;4926612;29;20031;-70
2021/07/28 14:29:31;;;;;;;8.02;4.75;;;;;;;25.68;45.88;98518.19;4920843;29;20043;-70
2021/07/28 14:31:56;;;;;;;5.50;4.00;;;;;;;25.57;44.38;98512.91;4925324;29;20035;-71
2021/07/28 14:34:22;;;;;;;3.92;3.00;;;;;;;26.20;44.27;98513.75;4926457;29;20039;-71
2021/07/28 14:36:47;;;;;;;4.68;3.33;;;;;;;26.15;43.74;98513.31;4920722;29;20035;-71
2021/07/28 14:39:13;;;;;;;6.18;3.80;;;;;;;26.18;44.72;98518.38;4926737;29;20028;-71
2021/07/28 14:41:38;;;;;;;4.47;3.17;;;;;;;25.69;43.97;98519.88;4926261;29;20087;-71
2021/07/28 14:44:04;;;;;;;5.63;3.15;;;;;;;25.99;44.68;98505.00;4924045;29;20054;-71
2021/07/28 14:46:30;;;;;;;7.45;2.55;;;;;;;26.37;43.85;98509.66;4923114;29;20023;-71
2021/07/28 14:48:55;;;;;;;5.78;2.95;;;;;;;26.56;42.27;98503.59;4920264;29;20027;-71
2021/07/28 14:51:22;;;;;;;3.53;2.92;;;;;;;26.26;43.18;98507.94;4925969;29;20173;-71
2021/07/28 14:53:49;;;;;;;5.32;3.30;;;;;;;26.72;43.55;98509.22;4926351;29;20552;-71
2021/07/28 14:56:17;;;;;;;6.80;4.57;;;;;;;26.77;42.48;98507.00;4923181;29;20078;-71
2021/07/28 14:58:42;;;;;;;8.45;3.03;;;;;;;25.60;44.74;98510.03;4926183;29;20032;-71
2021/07/28 15:01:08;;;;;;;6.55;3.00;;;;;;;26.15;44.61;98505.34;4925739;29;20024;-71
2021/07/28 15:03:34;;;;;;;5.85;4.07;;;;;;;26.53;43.74;98507.34;4923454;29;20039;-71
2021/07/28 15:06:00;;;;;;;4.40;3.58;;;;;;;25.91;43.92;98515.41;4922980;29;20815;-71
2021/07/28 15:08:26;;;;;;;5.95;3.58;;;;;;;25.32;45.65;98501.69;4925974;29;20023;-71
2021/07/28 15:10:51;;;;;;;21.35;17.92;;;;;;;25.34;47.34;98506.91;4925930;29;20050;-71
2021/07/28 15:13:16;;;;;;;4.75;3.42;;;;;;;25.16;46.24;98505.75;4925109;29;20406;-71
2021/07/28 15:15:42;;;;;;;3.85;3.17;;;;;;;25.01;46.62;98497.22;4924423;29;20067;-71
2021/07/28 15:18:07;;;;;;;3.22;2.92;;;;;;;25.07;47.98;98502.06;4920138;29;20028;-71
2021/07/28 15:20:32;;;;;;;3.97;3.30;;;;;;;25.05;46.47;98496.84;4925745;29;20062;-71
2021/07/28 15:22:58;;;;;;;4.00;3.60;;;;;;;25.17;47.21;98497.66;4925933;29;20050;-71
2021/07/28 15:25:24;;;;;;;7.40;4.18;;;;;;;24.91;47.53;98496.28;4925393;29;20032;-71
2021/07/28 15:27:49;;;;;;;5.35;3.10;;;;;;;24.63;47.53;98503.81;4925867;29;20030;-71
2021/07/28 15:30:15;;;;;;;7.28;3.30;;;;;;;24.56;47.73;98510.56;4925878;29;20027;-71
2021/07/28 15:32:41;;;;;;;3.90;3.33;;;;;;;24.48;50.15;98520.94;4924357;29;20023;-71
2021/07/28 15:35:08;;;;;;;3.95;3.08;;;;;;;24.02;51.60;98519.19;4923426;29;20477;-71
2021/07/28 15:37:33;;;;;;;7.43;3.08;;;;;;;24.05;53.15;98518.97;4925778;29;20027;-71
2021/07/28 15:40:05;;;;;;;5.47;2.70;;;;;;;24.79;51.99;98509.56;4925778;29;20059;-72
2021/07/28 15:42:33;;;;;;;6.20;2.65;;;;;;;25.51;50.81;98508.13;4925335;29;20039;-71
2021/07/28 15:44:59;;;;;;;5.03;2.90;;;;;;;25.45;49.93;98506.00;4921139;29;20027;-71